sensor_id;sensor_type;location;lat;lon;timestamp;P1;durP1;ratioP1;P2;durP2;ratioP2
23304;SDS011;11821;51.456;8.844;2024-03-02T00:00:34;29.23;;;26.33;;
23304;SDS011;11821;51.456;8.844;2024-03-02T00:03:01;27.67;;;25.13;;
23304;SDS011;11821;51.456;8.844;2024-03-02T00:05:27;20.08;;;18.10;;
23304;SDS011;11821;51.456;8.844;2024-03-02T00:07:55;15.32;;;11.95;;
23304;SDS011;11821;51.456;8.844;2024-03-02T00:10:26;14.05;;;12.30;;
23304;SDS011;11821;51.456;8.844;2024-03-02T00:12:57;20.35;;;17.80;;
23304;SDS011;11821;51.456;8.844;2024-03-02T00:17:56;19.42;;;8.27;;
23304;SDS011;11821;51.456;8.844;2024-03-02T00:20:22;14.20;;;9.82;;
23304;SDS011;11821;51.456;8.844;2024-03-02T00:23:05;11.95;;;10.25;;
23304;SDS011;11821;51.456;8.844;2024-03-02T00:25:42;11.32;;;10.13;;
23304;SDS011;11821;51.456;8.844;2024-03-02T00:28:25;18.77;;;16.92;;
23304;SDS011;11821;51.456;8.844;2024-03-02T00:30:58;21.58;;;17.50;;
23304;SDS011;11821;51.456;8.844;2024-03-02T00:33:26;28.85;;;26.17;;
23304;SDS011;11821;51.456;8.844;2024-03-02T00:35:53;21.45;;;19.27;;
23304;SDS011;11821;51.456;8.844;2024-03-02T00:38:20;23.58;;;20.90;;
23304;SDS011;11821;51.456;8.844;2024-03-02T00:40:46;23.70;;;21.10;;
23304;SDS011;11821;51.456;8.844;2024-03-02T00:43:29;29.42;;;26.50;;
23304;SDS011;11821;51.456;8.844;2024-03-02T00:46:02;28.30;;;25.33;;
23304;SDS011;11821;51.456;8.844;2024-03-02T00:48:29;24.48;;;22.27;;
23304;SDS011;11821;51.456;8.844;2024-03-02T00:50:56;27.13;;;24.83;;
23304;SDS011;11821;51.456;8.844;2024-03-02T00:53:23;32.90;;;29.80;;
23304;SDS011;11821;51.456;8.844;2024-03-02T00:55:52;35.65;;;32.08;;
23304;SDS011;11821;51.456;8.844;2024-03-02T00:58:19;32.90;;;29.60;;
23304;SDS011;11821;51.456;8.844;2024-03-02T01:00:45;28.48;;;25.50;;
23304;SDS011;11821;51.456;8.844;2024-03-02T01:03:12;28.23;;;24.73;;
23304;SDS011;11821;51.456;8.844;2024-03-02T01:05:42;30.20;;;27.30;;
23304;SDS011;11821;51.456;8.844;2024-03-02T01:08:09;33.97;;;30.55;;
23304;SDS011;11821;51.456;8.844;2024-03-02T01:10:35;30.77;;;27.70;;
23304;SDS011;11821;51.456;8.844;2024-03-02T01:13:02;24.67;;;21.10;;
23304;SDS011;11821;51.456;8.844;2024-03-02T01:15:29;29.83;;;26.85;;
23304;SDS011;11821;51.456;8.844;2024-03-02T01:17:55;24.83;;;22.33;;
23304;SDS011;11821;51.456;8.844;2024-03-02T01:20:22;24.25;;;21.38;;
23304;SDS011;11821;51.456;8.844;2024-03-02T01:22:48;20.35;;;16.77;;
23304;SDS011;11821;51.456;8.844;2024-03-02T01:25:15;25.98;;;23.25;;
23304;SDS011;11821;51.456;8.844;2024-03-02T01:27:41;26.25;;;23.63;;
23304;SDS011;11821;51.456;8.844;2024-03-02T01:30:08;23.92;;;19.05;;
23304;SDS011;11821;51.456;8.844;2024-03-02T01:32:35;24.55;;;20.67;;
23304;SDS011;11821;51.456;8.844;2024-03-02T01:35:01;25.52;;;22.45;;
23304;SDS011;11821;51.456;8.844;2024-03-02T01:37:28;26.52;;;23.05;;
23304;SDS011;11821;51.456;8.844;2024-03-02T01:39:54;26.83;;;23.70;;
23304;SDS011;11821;51.456;8.844;2024-03-02T01:42:21;31.40;;;28.05;;
23304;SDS011;11821;51.456;8.844;2024-03-02T01:44:47;24.67;;;21.63;;
23304;SDS011;11821;51.456;8.844;2024-03-02T01:47:14;26.52;;;21.90;;
23304;SDS011;11821;51.456;8.844;2024-03-02T01:49:41;30.05;;;24.98;;
23304;SDS011;11821;51.456;8.844;2024-03-02T01:52:07;26.83;;;24.00;;
23304;SDS011;11821;51.456;8.844;2024-03-02T01:54:34;37.70;;;33.75;;
23304;SDS011;11821;51.456;8.844;2024-03-02T01:57:00;37.38;;;33.38;;
23304;SDS011;11821;51.456;8.844;2024-03-02T01:59:27;28.73;;;25.58;;
23304;SDS011;11821;51.456;8.844;2024-03-02T02:01:53;33.85;;;30.20;;
23304;SDS011;11821;51.456;8.844;2024-03-02T02:04:20;21.98;;;17.40;;
23304;SDS011;11821;51.456;8.844;2024-03-02T02:06:52;29.88;;;26.70;;
23304;SDS011;11821;51.456;8.844;2024-03-02T02:09:19;36.90;;;32.20;;
23304;SDS011;11821;51.456;8.844;2024-03-02T02:11:45;33.10;;;29.42;;
23304;SDS011;11821;51.456;8.844;2024-03-02T02:14:12;34.45;;;30.77;;
23304;SDS011;11821;51.456;8.844;2024-03-02T02:16:38;35.88;;;32.00;;
23304;SDS011;11821;51.456;8.844;2024-03-02T02:19:05;41.35;;;36.92;;
23304;SDS011;11821;51.456;8.844;2024-03-02T02:21:31;36.53;;;30.33;;
23304;SDS011;11821;51.456;8.844;2024-03-02T02:23:58;36.35;;;32.70;;
23304;SDS011;11821;51.456;8.844;2024-03-02T02:26:24;41.20;;;33.55;;
23304;SDS011;11821;51.456;8.844;2024-03-02T02:28:52;23.13;;;17.50;;
23304;SDS011;11821;51.456;8.844;2024-03-02T02:31:19;27.40;;;21.83;;
23304;SDS011;11821;51.456;8.844;2024-03-02T02:33:45;33.08;;;29.60;;
23304;SDS011;11821;51.456;8.844;2024-03-02T02:36:12;26.23;;;20.92;;
23304;SDS011;11821;51.456;8.844;2024-03-02T02:38:40;30.80;;;23.77;;
23304;SDS011;11821;51.456;8.844;2024-03-02T02:41:08;31.85;;;24.80;;
23304;SDS011;11821;51.456;8.844;2024-03-02T02:43:35;33.25;;;27.23;;
23304;SDS011;11821;51.456;8.844;2024-03-02T02:46:01;31.33;;;25.35;;
23304;SDS011;11821;51.456;8.844;2024-03-02T02:48:28;32.80;;;27.20;;
23304;SDS011;11821;51.456;8.844;2024-03-02T02:50:54;38.08;;;27.65;;
23304;SDS011;11821;51.456;8.844;2024-03-02T02:53:21;30.25;;;25.48;;
23304;SDS011;11821;51.456;8.844;2024-03-02T02:55:47;37.90;;;23.83;;
23304;SDS011;11821;51.456;8.844;2024-03-02T02:58:14;30.33;;;21.45;;
23304;SDS011;11821;51.456;8.844;2024-03-02T03:00:40;38.53;;;22.85;;
23304;SDS011;11821;51.456;8.844;2024-03-02T03:03:07;26.80;;;20.83;;
23304;SDS011;11821;51.456;8.844;2024-03-02T03:05:33;26.75;;;18.52;;
23304;SDS011;11821;51.456;8.844;2024-03-02T03:08:00;27.45;;;19.42;;
23304;SDS011;11821;51.456;8.844;2024-03-02T03:10:26;26.92;;;14.65;;
23304;SDS011;11821;51.456;8.844;2024-03-02T03:12:53;21.27;;;13.80;;
23304;SDS011;11821;51.456;8.844;2024-03-02T03:15:21;21.73;;;13.68;;
23304;SDS011;11821;51.456;8.844;2024-03-02T03:17:48;19.67;;;13.57;;
23304;SDS011;11821;51.456;8.844;2024-03-02T03:20:14;21.35;;;13.48;;
23304;SDS011;11821;51.456;8.844;2024-03-02T03:22:41;19.13;;;12.23;;
23304;SDS011;11821;51.456;8.844;2024-03-02T03:25:07;23.17;;;14.35;;
23304;SDS011;11821;51.456;8.844;2024-03-02T03:27:34;20.95;;;14.85;;
23304;SDS011;11821;51.456;8.844;2024-03-02T03:30:01;26.27;;;14.77;;
23304;SDS011;11821;51.456;8.844;2024-03-02T03:32:28;27.80;;;19.75;;
23304;SDS011;11821;51.456;8.844;2024-03-02T03:34:54;23.70;;;15.10;;
23304;SDS011;11821;51.456;8.844;2024-03-02T03:37:21;28.60;;;17.40;;
23304;SDS011;11821;51.456;8.844;2024-03-02T03:39:47;30.27;;;17.38;;
23304;SDS011;11821;51.456;8.844;2024-03-02T03:42:14;21.10;;;14.10;;
23304;SDS011;11821;51.456;8.844;2024-03-02T03:44:41;24.02;;;14.38;;
23304;SDS011;11821;51.456;8.844;2024-03-02T03:47:07;20.17;;;12.43;;
23304;SDS011;11821;51.456;8.844;2024-03-02T03:49:34;21.90;;;15.73;;
23304;SDS011;11821;51.456;8.844;2024-03-02T03:52:01;19.65;;;13.82;;
23304;SDS011;11821;51.456;8.844;2024-03-02T03:54:27;18.77;;;12.30;;
23304;SDS011;11821;51.456;8.844;2024-03-02T03:56:54;20.20;;;13.05;;
23304;SDS011;11821;51.456;8.844;2024-03-02T03:59:21;17.60;;;13.30;;
23304;SDS011;11821;51.456;8.844;2024-03-02T04:01:48;18.25;;;11.70;;
23304;SDS011;11821;51.456;8.844;2024-03-02T04:04:14;17.50;;;12.45;;
23304;SDS011;11821;51.456;8.844;2024-03-02T04:06:41;18.83;;;12.57;;
23304;SDS011;11821;51.456;8.844;2024-03-02T04:09:07;20.17;;;12.70;;
23304;SDS011;11821;51.456;8.844;2024-03-02T04:11:34;16.55;;;11.02;;
23304;SDS011;11821;51.456;8.844;2024-03-02T04:14:00;15.32;;;11.38;;
23304;SDS011;11821;51.456;8.844;2024-03-02T04:16:27;19.55;;;12.63;;
23304;SDS011;11821;51.456;8.844;2024-03-02T04:18:54;20.65;;;12.63;;
23304;SDS011;11821;51.456;8.844;2024-03-02T04:21:20;19.52;;;12.10;;
23304;SDS011;11821;51.456;8.844;2024-03-02T04:23:47;19.92;;;11.73;;
23304;SDS011;11821;51.456;8.844;2024-03-02T04:26:13;23.23;;;12.80;;
23304;SDS011;11821;51.456;8.844;2024-03-02T04:28:45;22.90;;;13.87;;
23304;SDS011;11821;51.456;8.844;2024-03-02T04:31:12;21.92;;;13.02;;
23304;SDS011;11821;51.456;8.844;2024-03-02T04:33:38;21.08;;;13.55;;
23304;SDS011;11821;51.456;8.844;2024-03-02T04:36:05;25.02;;;15.00;;
23304;SDS011;11821;51.456;8.844;2024-03-02T04:38:34;21.58;;;14.02;;
23304;SDS011;11821;51.456;8.844;2024-03-02T04:41:00;23.88;;;15.70;;
23304;SDS011;11821;51.456;8.844;2024-03-02T04:43:27;20.65;;;13.60;;
23304;SDS011;11821;51.456;8.844;2024-03-02T04:45:53;20.38;;;13.77;;
23304;SDS011;11821;51.456;8.844;2024-03-02T04:48:20;24.85;;;13.88;;
23304;SDS011;11821;51.456;8.844;2024-03-02T04:50:47;21.00;;;14.63;;
23304;SDS011;11821;51.456;8.844;2024-03-02T04:53:14;25.13;;;16.60;;
23304;SDS011;11821;51.456;8.844;2024-03-02T04:55:40;25.15;;;18.55;;
23304;SDS011;11821;51.456;8.844;2024-03-02T04:58:07;24.08;;;18.25;;
23304;SDS011;11821;51.456;8.844;2024-03-02T05:00:33;20.38;;;12.60;;
23304;SDS011;11821;51.456;8.844;2024-03-02T05:03:00;26.00;;;15.50;;
23304;SDS011;11821;51.456;8.844;2024-03-02T05:05:27;25.13;;;15.63;;
23304;SDS011;11821;51.456;8.844;2024-03-02T05:07:53;29.58;;;17.23;;
23304;SDS011;11821;51.456;8.844;2024-03-02T05:10:20;29.00;;;17.30;;
23304;SDS011;11821;51.456;8.844;2024-03-02T05:12:46;19.73;;;14.55;;
23304;SDS011;11821;51.456;8.844;2024-03-02T05:15:22;25.10;;;17.02;;
23304;SDS011;11821;51.456;8.844;2024-03-02T05:17:49;31.73;;;20.05;;
23304;SDS011;11821;51.456;8.844;2024-03-02T05:20:15;26.70;;;17.90;;
23304;SDS011;11821;51.456;8.844;2024-03-02T05:22:42;23.42;;;15.07;;
23304;SDS011;11821;51.456;8.844;2024-03-02T05:25:09;31.45;;;20.10;;
23304;SDS011;11821;51.456;8.844;2024-03-02T05:27:36;26.35;;;16.75;;
23304;SDS011;11821;51.456;8.844;2024-03-02T05:30:02;24.80;;;17.58;;
23304;SDS011;11821;51.456;8.844;2024-03-02T05:32:32;30.45;;;17.55;;
23304;SDS011;11821;51.456;8.844;2024-03-02T05:34:58;33.60;;;17.90;;
23304;SDS011;11821;51.456;8.844;2024-03-02T05:37:25;37.95;;;22.63;;
23304;SDS011;11821;51.456;8.844;2024-03-02T05:39:51;35.47;;;19.48;;
23304;SDS011;11821;51.456;8.844;2024-03-02T05:42:18;28.33;;;18.38;;
23304;SDS011;11821;51.456;8.844;2024-03-02T05:44:45;34.63;;;21.65;;
23304;SDS011;11821;51.456;8.844;2024-03-02T05:47:11;33.83;;;18.63;;
23304;SDS011;11821;51.456;8.844;2024-03-02T05:49:38;41.45;;;33.28;;
23304;SDS011;11821;51.456;8.844;2024-03-02T05:52:04;38.75;;;21.15;;
23304;SDS011;11821;51.456;8.844;2024-03-02T05:54:32;41.03;;;20.55;;
23304;SDS011;11821;51.456;8.844;2024-03-02T05:56:58;39.45;;;20.08;;
23304;SDS011;11821;51.456;8.844;2024-03-02T05:59:42;35.65;;;20.02;;
23304;SDS011;11821;51.456;8.844;2024-03-02T06:02:12;32.25;;;20.15;;
23304;SDS011;11821;51.456;8.844;2024-03-02T06:04:38;36.80;;;23.38;;
23304;SDS011;11821;51.456;8.844;2024-03-02T06:07:05;37.78;;;24.00;;
23304;SDS011;11821;51.456;8.844;2024-03-02T06:09:31;44.20;;;26.88;;
23304;SDS011;11821;51.456;8.844;2024-03-02T06:11:58;38.33;;;20.95;;
23304;SDS011;11821;51.456;8.844;2024-03-02T06:14:24;39.17;;;19.10;;
23304;SDS011;11821;51.456;8.844;2024-03-02T06:16:51;39.22;;;22.02;;
23304;SDS011;11821;51.456;8.844;2024-03-02T06:19:17;34.30;;;19.83;;
23304;SDS011;11821;51.456;8.844;2024-03-02T06:21:44;35.83;;;19.50;;
23304;SDS011;11821;51.456;8.844;2024-03-02T06:24:10;44.30;;;24.52;;
23304;SDS011;11821;51.456;8.844;2024-03-02T06:26:37;39.92;;;24.77;;
23304;SDS011;11821;51.456;8.844;2024-03-02T06:29:04;31.55;;;21.65;;
23304;SDS011;11821;51.456;8.844;2024-03-02T06:31:31;36.72;;;21.80;;
23304;SDS011;11821;51.456;8.844;2024-03-02T06:33:58;36.78;;;19.05;;
23304;SDS011;11821;51.456;8.844;2024-03-02T06:36:24;32.15;;;18.25;;
23304;SDS011;11821;51.456;8.844;2024-03-02T06:38:51;32.08;;;16.73;;
23304;SDS011;11821;51.456;8.844;2024-03-02T06:41:17;28.15;;;16.65;;
23304;SDS011;11821;51.456;8.844;2024-03-02T06:43:44;37.58;;;20.67;;
23304;SDS011;11821;51.456;8.844;2024-03-02T06:46:10;37.05;;;21.27;;
23304;SDS011;11821;51.456;8.844;2024-03-02T06:48:40;35.90;;;19.67;;
23304;SDS011;11821;51.456;8.844;2024-03-02T06:51:06;31.15;;;18.00;;
23304;SDS011;11821;51.456;8.844;2024-03-02T06:53:33;40.75;;;21.23;;
23304;SDS011;11821;51.456;8.844;2024-03-02T06:55:59;37.15;;;23.02;;
23304;SDS011;11821;51.456;8.844;2024-03-02T06:58:26;40.53;;;22.73;;
23304;SDS011;11821;51.456;8.844;2024-03-02T07:00:53;29.80;;;19.83;;
23304;SDS011;11821;51.456;8.844;2024-03-02T07:03:19;28.67;;;18.25;;
23304;SDS011;11821;51.456;8.844;2024-03-02T07:05:46;31.23;;;17.17;;
23304;SDS011;11821;51.456;8.844;2024-03-02T07:08:13;27.83;;;16.48;;
23304;SDS011;11821;51.456;8.844;2024-03-02T07:10:40;26.40;;;16.23;;
23304;SDS011;11821;51.456;8.844;2024-03-02T07:13:06;25.45;;;16.00;;
23304;SDS011;11821;51.456;8.844;2024-03-02T07:15:33;23.77;;;16.95;;
23304;SDS011;11821;51.456;8.844;2024-03-02T07:18:15;23.55;;;15.43;;
23304;SDS011;11821;51.456;8.844;2024-03-02T07:20:42;28.15;;;13.98;;
23304;SDS011;11821;51.456;8.844;2024-03-02T07:23:09;25.80;;;14.88;;
23304;SDS011;11821;51.456;8.844;2024-03-02T07:25:35;23.08;;;15.50;;
23304;SDS011;11821;51.456;8.844;2024-03-02T07:28:02;29.23;;;16.73;;
23304;SDS011;11821;51.456;8.844;2024-03-02T07:30:29;29.42;;;20.20;;
23304;SDS011;11821;51.456;8.844;2024-03-02T07:32:56;18.08;;;13.70;;
23304;SDS011;11821;51.456;8.844;2024-03-02T07:35:24;27.55;;;14.18;;
23304;SDS011;11821;51.456;8.844;2024-03-02T07:37:53;28.27;;;16.00;;
23304;SDS011;11821;51.456;8.844;2024-03-02T07:40:20;26.75;;;16.33;;
23304;SDS011;11821;51.456;8.844;2024-03-02T07:42:47;24.38;;;14.18;;
23304;SDS011;11821;51.456;8.844;2024-03-02T07:45:13;25.67;;;14.88;;
23304;SDS011;11821;51.456;8.844;2024-03-02T07:47:40;23.45;;;13.27;;
23304;SDS011;11821;51.456;8.844;2024-03-02T07:50:07;23.85;;;13.38;;
23304;SDS011;11821;51.456;8.844;2024-03-02T07:52:34;33.83;;;23.90;;
23304;SDS011;11821;51.456;8.844;2024-03-02T07:55:01;26.55;;;16.25;;
23304;SDS011;11821;51.456;8.844;2024-03-02T07:57:27;28.17;;;17.85;;
23304;SDS011;11821;51.456;8.844;2024-03-02T07:59:54;23.05;;;14.52;;
23304;SDS011;11821;51.456;8.844;2024-03-02T08:02:20;24.80;;;16.00;;
23304;SDS011;11821;51.456;8.844;2024-03-02T08:04:47;23.48;;;15.27;;
23304;SDS011;11821;51.456;8.844;2024-03-02T08:07:14;25.73;;;18.10;;
23304;SDS011;11821;51.456;8.844;2024-03-02T08:09:40;21.85;;;15.68;;
23304;SDS011;11821;51.456;8.844;2024-03-02T08:12:07;26.52;;;15.55;;
23304;SDS011;11821;51.456;8.844;2024-03-02T08:14:34;21.80;;;15.07;;
23304;SDS011;11821;51.456;8.844;2024-03-02T08:17:00;24.70;;;15.40;;
23304;SDS011;11821;51.456;8.844;2024-03-02T08:19:27;25.15;;;14.85;;
23304;SDS011;11821;51.456;8.844;2024-03-02T08:21:53;26.40;;;15.68;;
23304;SDS011;11821;51.456;8.844;2024-03-02T08:24:20;27.30;;;16.70;;
23304;SDS011;11821;51.456;8.844;2024-03-02T08:26:46;24.92;;;16.92;;
23304;SDS011;11821;51.456;8.844;2024-03-02T08:29:13;28.38;;;17.60;;
23304;SDS011;11821;51.456;8.844;2024-03-02T08:31:40;26.80;;;15.90;;
23304;SDS011;11821;51.456;8.844;2024-03-02T08:34:06;27.85;;;18.30;;
23304;SDS011;11821;51.456;8.844;2024-03-02T08:36:33;27.92;;;18.63;;
23304;SDS011;11821;51.456;8.844;2024-03-02T08:38:59;30.63;;;20.70;;
23304;SDS011;11821;51.456;8.844;2024-03-02T08:41:26;25.58;;;16.35;;
23304;SDS011;11821;51.456;8.844;2024-03-02T08:43:52;28.58;;;16.67;;
23304;SDS011;11821;51.456;8.844;2024-03-02T08:46:19;24.83;;;15.45;;
23304;SDS011;11821;51.456;8.844;2024-03-02T08:48:45;25.70;;;14.02;;
23304;SDS011;11821;51.456;8.844;2024-03-02T08:51:12;26.73;;;15.13;;
23304;SDS011;11821;51.456;8.844;2024-03-02T08:53:38;25.85;;;14.57;;
23304;SDS011;11821;51.456;8.844;2024-03-02T08:56:05;21.80;;;12.70;;
23304;SDS011;11821;51.456;8.844;2024-03-02T08:58:32;19.75;;;14.20;;
23304;SDS011;11821;51.456;8.844;2024-03-02T09:00:58;20.67;;;10.75;;
23304;SDS011;11821;51.456;8.844;2024-03-02T09:03:25;21.23;;;13.65;;
23304;SDS011;11821;51.456;8.844;2024-03-02T09:05:51;47.05;;;24.48;;
23304;SDS011;11821;51.456;8.844;2024-03-02T09:08:18;26.58;;;15.68;;
23304;SDS011;11821;51.456;8.844;2024-03-02T09:10:45;17.35;;;10.32;;
23304;SDS011;11821;51.456;8.844;2024-03-02T09:13:11;20.73;;;12.63;;
23304;SDS011;11821;51.456;8.844;2024-03-02T09:15:38;16.35;;;10.60;;
23304;SDS011;11821;51.456;8.844;2024-03-02T09:18:05;16.55;;;10.60;;
23304;SDS011;11821;51.456;8.844;2024-03-02T09:20:32;15.57;;;9.48;;
23304;SDS011;11821;51.456;8.844;2024-03-02T09:22:58;15.55;;;11.55;;
23304;SDS011;11821;51.456;8.844;2024-03-02T09:25:25;12.95;;;9.15;;
23304;SDS011;11821;51.456;8.844;2024-03-02T09:27:51;14.82;;;9.15;;
23304;SDS011;11821;51.456;8.844;2024-03-02T09:30:18;16.05;;;10.77;;
23304;SDS011;11821;51.456;8.844;2024-03-02T09:32:44;12.80;;;10.07;;
23304;SDS011;11821;51.456;8.844;2024-03-02T09:35:11;15.68;;;9.73;;
23304;SDS011;11821;51.456;8.844;2024-03-02T09:37:38;13.35;;;10.15;;
23304;SDS011;11821;51.456;8.844;2024-03-02T09:40:04;13.93;;;9.85;;
23304;SDS011;11821;51.456;8.844;2024-03-02T09:42:31;15.88;;;8.77;;
23304;SDS011;11821;51.456;8.844;2024-03-02T09:44:58;13.00;;;9.95;;
23304;SDS011;11821;51.456;8.844;2024-03-02T09:47:24;13.60;;;9.82;;
23304;SDS011;11821;51.456;8.844;2024-03-02T09:49:51;14.48;;;9.55;;
23304;SDS011;11821;51.456;8.844;2024-03-02T09:52:18;11.70;;;8.50;;
23304;SDS011;11821;51.456;8.844;2024-03-02T09:54:46;12.15;;;8.90;;
23304;SDS011;11821;51.456;8.844;2024-03-02T09:57:13;11.65;;;8.30;;
23304;SDS011;11821;51.456;8.844;2024-03-02T09:59:39;10.80;;;8.00;;
23304;SDS011;11821;51.456;8.844;2024-03-02T10:02:06;11.95;;;8.23;;
23304;SDS011;11821;51.456;8.844;2024-03-02T10:04:33;11.77;;;8.07;;
23304;SDS011;11821;51.456;8.844;2024-03-02T10:07:10;12.95;;;10.85;;
23304;SDS011;11821;51.456;8.844;2024-03-02T10:09:37;12.75;;;10.50;;
23304;SDS011;11821;51.456;8.844;2024-03-02T10:12:04;16.92;;;14.13;;
23304;SDS011;11821;51.456;8.844;2024-03-02T10:14:31;22.05;;;16.40;;
23304;SDS011;11821;51.456;8.844;2024-03-02T10:17:02;11.27;;;8.05;;
23304;SDS011;11821;51.456;8.844;2024-03-02T10:19:29;11.27;;;7.78;;
23304;SDS011;11821;51.456;8.844;2024-03-02T10:22:03;9.85;;;7.47;;
23304;SDS011;11821;51.456;8.844;2024-03-02T10:24:38;10.27;;;7.03;;
23304;SDS011;11821;51.456;8.844;2024-03-02T10:27:17;11.27;;;8.52;;
23304;SDS011;11821;51.456;8.844;2024-03-02T10:29:47;10.15;;;7.63;;
23304;SDS011;11821;51.456;8.844;2024-03-02T10:32:15;8.27;;;6.38;;
23304;SDS011;11821;51.456;8.844;2024-03-02T10:34:42;9.85;;;6.28;;
23304;SDS011;11821;51.456;8.844;2024-03-02T10:37:10;10.40;;;7.32;;
23304;SDS011;11821;51.456;8.844;2024-03-02T10:39:36;7.68;;;5.82;;
23304;SDS011;11821;51.456;8.844;2024-03-02T10:42:08;7.40;;;5.47;;
23304;SDS011;11821;51.456;8.844;2024-03-02T10:44:35;9.73;;;6.43;;
23304;SDS011;11821;51.456;8.844;2024-03-02T10:47:03;7.55;;;5.15;;
23304;SDS011;11821;51.456;8.844;2024-03-02T10:49:30;9.23;;;6.25;;
23304;SDS011;11821;51.456;8.844;2024-03-02T10:52:00;6.40;;;5.20;;
23304;SDS011;11821;51.456;8.844;2024-03-02T10:54:27;9.50;;;5.80;;
23304;SDS011;11821;51.456;8.844;2024-03-02T10:57:01;5.95;;;4.78;;
23304;SDS011;11821;51.456;8.844;2024-03-02T10:59:32;7.57;;;4.97;;
23304;SDS011;11821;51.456;8.844;2024-03-02T11:02:00;5.82;;;4.70;;
23304;SDS011;11821;51.456;8.844;2024-03-02T11:04:27;7.57;;;5.15;;
23304;SDS011;11821;51.456;8.844;2024-03-02T11:07:04;8.20;;;4.90;;
23304;SDS011;11821;51.456;8.844;2024-03-02T11:09:32;6.40;;;4.78;;
23304;SDS011;11821;51.456;8.844;2024-03-02T11:14:30;6.35;;;4.55;;
23304;SDS011;11821;51.456;8.844;2024-03-02T11:17:00;6.32;;;4.30;;
23304;SDS011;11821;51.456;8.844;2024-03-02T11:19:28;8.32;;;4.95;;
23304;SDS011;11821;51.456;8.844;2024-03-02T11:21:55;8.13;;;4.95;;
23304;SDS011;11821;51.456;8.844;2024-03-02T11:27:00;7.25;;;4.93;;
23304;SDS011;11821;51.456;8.844;2024-03-02T11:32:12;7.07;;;5.28;;
23304;SDS011;11821;51.456;8.844;2024-03-02T11:34:42;7.85;;;4.72;;
23304;SDS011;11821;51.456;8.844;2024-03-02T11:37:12;5.53;;;4.25;;
23304;SDS011;11821;51.456;8.844;2024-03-02T11:39:39;9.07;;;4.72;;
23304;SDS011;11821;51.456;8.844;2024-03-02T11:42:06;8.80;;;4.38;;
23304;SDS011;11821;51.456;8.844;2024-03-02T11:44:36;5.85;;;4.30;;
23304;SDS011;11821;51.456;8.844;2024-03-02T11:47:07;5.03;;;4.28;;
23304;SDS011;11821;51.456;8.844;2024-03-02T11:49:38;8.02;;;4.03;;
23304;SDS011;11821;51.456;8.844;2024-03-02T11:52:05;4.63;;;3.72;;
23304;SDS011;11821;51.456;8.844;2024-03-02T11:54:33;8.90;;;4.25;;
23304;SDS011;11821;51.456;8.844;2024-03-02T11:57:01;6.45;;;3.97;;
23304;SDS011;11821;51.456;8.844;2024-03-02T11:59:31;5.68;;;4.30;;
23304;SDS011;11821;51.456;8.844;2024-03-02T12:01:57;5.43;;;4.20;;
23304;SDS011;11821;51.456;8.844;2024-03-02T12:04:25;6.40;;;4.72;;
23304;SDS011;11821;51.456;8.844;2024-03-02T12:06:55;6.38;;;3.83;;
23304;SDS011;11821;51.456;8.844;2024-03-02T12:09:25;7.78;;;4.22;;
23304;SDS011;11821;51.456;8.844;2024-03-02T12:12:02;5.47;;;4.07;;
23304;SDS011;11821;51.456;8.844;2024-03-02T12:14:29;5.10;;;3.97;;
23304;SDS011;11821;51.456;8.844;2024-03-02T12:16:56;4.68;;;3.67;;
23304;SDS011;11821;51.456;8.844;2024-03-02T12:19:24;3.75;;;3.08;;
23304;SDS011;11821;51.456;8.844;2024-03-02T12:21:52;4.32;;;3.25;;
23304;SDS011;11821;51.456;8.844;2024-03-02T12:24:18;6.32;;;3.95;;
23304;SDS011;11821;51.456;8.844;2024-03-02T12:26:45;6.97;;;3.67;;
23304;SDS011;11821;51.456;8.844;2024-03-02T12:29:13;6.50;;;4.03;;
23304;SDS011;11821;51.456;8.844;2024-03-02T12:31:41;6.20;;;4.47;;
23304;SDS011;11821;51.456;8.844;2024-03-02T12:34:14;4.43;;;3.42;;
23304;SDS011;11821;51.456;8.844;2024-03-02T12:36:41;4.63;;;3.30;;
23304;SDS011;11821;51.456;8.844;2024-03-02T12:39:08;4.53;;;3.17;;
23304;SDS011;11821;51.456;8.844;2024-03-02T12:41:38;4.35;;;3.45;;
23304;SDS011;11821;51.456;8.844;2024-03-02T12:44:07;5.50;;;2.90;;
23304;SDS011;11821;51.456;8.844;2024-03-02T12:46:34;6.35;;;3.95;;
23304;SDS011;11821;51.456;8.844;2024-03-02T12:49:11;3.78;;;3.08;;
23304;SDS011;11821;51.456;8.844;2024-03-02T12:51:41;5.28;;;3.28;;
23304;SDS011;11821;51.456;8.844;2024-03-02T12:54:09;5.45;;;3.72;;
23304;SDS011;11821;51.456;8.844;2024-03-02T12:56:36;5.13;;;3.50;;
23304;SDS011;11821;51.456;8.844;2024-03-02T12:59:03;4.93;;;3.58;;
23304;SDS011;11821;51.456;8.844;2024-03-02T13:01:30;5.78;;;3.80;;
23304;SDS011;11821;51.456;8.844;2024-03-02T13:03:57;5.38;;;3.55;;
23304;SDS011;11821;51.456;8.844;2024-03-02T13:06:24;4.35;;;3.30;;
23304;SDS011;11821;51.456;8.844;2024-03-02T13:08:54;5.72;;;4.00;;
23304;SDS011;11821;51.456;8.844;2024-03-02T13:11:21;5.88;;;4.10;;
23304;SDS011;11821;51.456;8.844;2024-03-02T13:13:50;6.70;;;4.03;;
23304;SDS011;11821;51.456;8.844;2024-03-02T13:16:17;6.18;;;3.90;;
23304;SDS011;11821;51.456;8.844;2024-03-02T13:18:45;5.53;;;4.15;;
23304;SDS011;11821;51.456;8.844;2024-03-02T13:21:12;4.70;;;3.65;;
23304;SDS011;11821;51.456;8.844;2024-03-02T13:23:38;7.55;;;5.10;;
23304;SDS011;11821;51.456;8.844;2024-03-02T13:26:05;5.93;;;4.30;;
23304;SDS011;11821;51.456;8.844;2024-03-02T13:28:33;6.22;;;3.95;;
23304;SDS011;11821;51.456;8.844;2024-03-02T13:30:59;7.80;;;3.88;;
23304;SDS011;11821;51.456;8.844;2024-03-02T13:33:26;3.80;;;2.95;;
23304;SDS011;11821;51.456;8.844;2024-03-02T13:35:52;3.78;;;2.95;;
23304;SDS011;11821;51.456;8.844;2024-03-02T13:38:19;3.83;;;2.38;;
23304;SDS011;11821;51.456;8.844;2024-03-02T13:40:49;4.13;;;3.20;;
23304;SDS011;11821;51.456;8.844;2024-03-02T13:43:19;3.70;;;2.83;;
23304;SDS011;11821;51.456;8.844;2024-03-02T13:45:45;3.70;;;3.13;;
23304;SDS011;11821;51.456;8.844;2024-03-02T13:48:13;4.32;;;3.03;;
23304;SDS011;11821;51.456;8.844;2024-03-02T13:50:40;3.83;;;2.47;;
23304;SDS011;11821;51.456;8.844;2024-03-02T13:53:06;4.25;;;2.53;;
23304;SDS011;11821;51.456;8.844;2024-03-02T13:55:34;2.70;;;1.75;;
23304;SDS011;11821;51.456;8.844;2024-03-02T13:58:01;3.05;;;2.10;;
23304;SDS011;11821;51.456;8.844;2024-03-02T14:00:27;2.60;;;1.98;;
23304;SDS011;11821;51.456;8.844;2024-03-02T14:02:55;4.00;;;2.90;;
23304;SDS011;11821;51.456;8.844;2024-03-02T14:05:21;2.55;;;1.90;;
23304;SDS011;11821;51.456;8.844;2024-03-02T14:07:48;3.63;;;2.35;;
23304;SDS011;11821;51.456;8.844;2024-03-02T14:10:14;2.70;;;1.45;;
23304;SDS011;11821;51.456;8.844;2024-03-02T14:12:42;3.42;;;2.65;;
23304;SDS011;11821;51.456;8.844;2024-03-02T14:15:08;3.97;;;2.42;;
23304;SDS011;11821;51.456;8.844;2024-03-02T14:17:35;3.90;;;1.88;;
23304;SDS011;11821;51.456;8.844;2024-03-02T14:20:02;3.85;;;2.97;;
23304;SDS011;11821;51.456;8.844;2024-03-02T14:22:30;2.42;;;1.40;;
23304;SDS011;11821;51.456;8.844;2024-03-02T14:24:57;4.03;;;2.80;;
23304;SDS011;11821;51.456;8.844;2024-03-02T14:27:24;3.72;;;2.90;;
23304;SDS011;11821;51.456;8.844;2024-03-02T14:29:51;4.00;;;2.78;;
23304;SDS011;11821;51.456;8.844;2024-03-02T14:32:17;4.00;;;2.67;;
23304;SDS011;11821;51.456;8.844;2024-03-02T14:34:44;3.67;;;2.45;;
23304;SDS011;11821;51.456;8.844;2024-03-02T14:37:13;2.90;;;2.25;;
23304;SDS011;11821;51.456;8.844;2024-03-02T14:39:39;3.50;;;2.65;;